Time;durP1;ratioP1;P1;durP2;ratioP2;P2;SDS_P1;SDS_P2;PMS_P1;PMS_P2;Temp;Humidity;BMP_temperature;BMP_pressure;BME280_temperature;BME280_humidity;BME280_pressure;Samples;Min_cycle;Max_cycle;Signal;HPM_P1;HPM_P2
2021/01/21 00:02:06;;;;;;;34.67;18.77;;;;;;;-7.35;83.79;99626.00;1753498;81;21183;-67
2021/01/21 00:04:34;;;;;;;35.90;18.55;;;;;;;-7.33;83.77;99624.23;1693520;84;21205;-68
2021/01/21 00:07:01;;;;;;;34.48;17.87;;;;;;;-7.30;83.65;99626.71;1696901;84;21703;-67
2021/01/21 00:09:29;;;;;;;31.77;18.23;;;;;;;-7.28;83.58;99629.25;1678354;84;21175;-67
2021/01/21 00:11:58;;;;;;;35.55;19.35;;;;;;;-7.27;83.37;99634.81;1713295;81;21711;-67
2021/01/21 00:14:26;;;;;;;34.00;19.27;;;;;;;-7.26;83.56;99642.91;1753616;81;21228;-67
2021/01/21 00:16:53;;;;;;;36.75;18.37;;;;;;;-7.24;83.51;99624.02;1736308;81;21199;-67
2021/01/21 00:19:22;;;;;;;36.17;20.30;;;;;;;-7.20;83.33;99634.20;1736180;81;21345;-67
2021/01/21 00:21:50;;;;;;;33.80;18.37;;;;;;;-7.18;83.15;99628.16;1680200;84;21179;-67
2021/01/21 00:24:17;;;;;;;33.60;18.35;;;;;;;-7.15;83.03;99630.63;1692253;84;21607;-67
2021/01/21 00:26:45;;;;;;;33.15;18.92;;;;;;;-7.13;82.86;99630.59;1657703;85;21163;-67
2021/01/21 00:29:13;;;;;;;29.15;14.45;;;;;;;-7.11;82.69;99634.81;1684138;84;21621;-67
2021/01/21 00:31:40;;;;;;;32.90;17.32;;;;;;;-7.11;82.98;99636.09;1681232;84;21192;-67
2021/01/21 00:34:08;;;;;;;33.35;18.55;;;;;;;-7.12;82.66;99636.99;1685352;84;21369;-67
2021/01/21 00:36:36;;;;;;;33.55;18.82;;;;;;;-7.12;82.74;99622.86;1747412;81;21302;-67
2021/01/21 00:39:06;;;;;;;37.00;19.52;;;;;;;-7.09;82.89;99621.92;1685392;84;21216;-68
2021/01/21 00:41:33;;;;;;;33.80;17.82;;;;;;;-7.06;82.87;99634.71;1694305;84;21314;-67
2021/01/21 00:44:01;;;;;;;35.48;18.17;;;;;;;-7.02;82.59;99624.75;1695842;84;21320;-67
2021/01/21 00:46:30;;;;;;;37.05;20.05;;;;;;;-7.01;82.55;99631.59;1691045;84;21175;-67
2021/01/21 00:48:57;;;;;;;34.27;19.30;;;;;;;-6.97;82.33;99625.93;1694983;84;21599;-66
2021/01/21 00:51:26;;;;;;;35.00;18.52;;;;;;;-6.97;82.37;99621.63;1692094;84;21656;-67
2021/01/21 00:53:54;;;;;;;32.95;19.27;;;;;;;-6.94;82.34;99621.97;1686975;84;21163;-67
2021/01/21 00:56:22;;;;;;;39.03;18.95;;;;;;;-6.93;82.26;99618.08;1755679;81;21184;-67
2021/01/21 00:58:50;;;;;;;33.65;18.67;;;;;;;-6.93;82.25;99603.94;1746586;81;21195;-67
2021/01/21 01:01:18;;;;;;;36.45;17.37;;;;;;;-6.93;82.32;99599.25;1747579;81;21318;-67
2021/01/21 01:03:47;;;;;;;34.98;18.40;;;;;;;-6.94;82.41;99602.23;1692768;83;21171;-67
2021/01/21 01:06:16;;;;;;;32.88;17.20;;;;;;;-6.94;82.55;99612.52;1759406;81;21171;-67
2021/01/21 01:08:46;;;;;;;31.48;17.77;;;;;;;-6.94;82.69;99602.23;1757710;81;21698;-67
2021/01/21 01:11:15;;;;;;;34.55;18.05;;;;;;;-6.92;82.75;99609.92;1742540;81;21346;-67
2021/01/21 01:13:43;;;;;;;34.05;18.30;;;;;;;-6.92;82.91;99598.34;1749784;81;21312;-67
2021/01/21 01:16:11;;;;;;;34.83;18.30;;;;;;;-6.87;82.89;99602.94;1741493;81;21175;-67
2021/01/21 01:18:41;;;;;;;33.25;18.20;;;;;;;-6.83;82.78;99604.53;1680895;84;21212;-67
2021/01/21 01:21:08;;;;;;;32.67;17.90;;;;;;;-6.79;82.63;99598.42;1737563;81;21171;-66
2021/01/21 01:23:38;;;;;;;34.45;18.57;;;;;;;-6.76;82.64;99610.38;1758472;81;21163;-68
2021/01/21 01:26:05;;;;;;;37.83;19.67;;;;;;;-6.71;82.35;99604.22;1762924;81;21218;-67
2021/01/21 01:28:33;;;;;;;34.45;19.02;;;;;;;-6.69;82.23;99585.72;1762951;81;21196;-67
2021/01/21 01:31:03;;;;;;;31.77;17.57;;;;;;;-6.66;82.02;99586.07;1713924;81;21310;-67
2021/01/21 01:33:32;;;;;;;33.73;18.27;;;;;;;-6.68;82.08;99578.39;1762607;81;21199;-67
2021/01/21 01:36:00;;;;;;;33.23;17.10;;;;;;;-6.68;82.21;99578.84;1758820;81;21596;-67
2021/01/21 01:38:28;;;;;;;34.92;19.02;;;;;;;-6.68;82.42;99578.84;1732807;81;21171;-67
2021/01/21 01:40:57;;;;;;;36.13;18.90;;;;;;;-6.70;82.42;99580.16;1753082;81;21163;-67
2021/01/21 01:43:27;;;;;;;35.58;19.02;;;;;;;-6.70;82.79;99576.76;1731283;81;21172;-67
2021/01/21 01:45:55;;;;;;;33.55;19.02;;;;;;;-6.68;82.73;99578.84;1677366;83;21176;-68
2021/01/21 01:48:24;;;;;;;35.23;19.05;;;;;;;-6.65;82.85;99584.75;1691221;84;21579;-67
2021/01/21 01:50:54;;;;;;;30.27;17.70;;;;;;;-6.62;82.85;99576.13;1732253;81;21310;-66
2021/01/21 01:53:23;;;;;;;36.50;18.60;;;;;;;-6.60;82.86;99574.34;1763704;81;21148;-67
2021/01/21 01:55:52;;;;;;;32.23;17.62;;;;;;;-6.59;82.77;99565.73;1736212;81;21600;-67
2021/01/21 01:58:22;;;;;;;34.67;19.82;;;;;;;-6.59;83.08;99564.44;1745376;81;21586;-67
2021/01/21 02:00:53;;;;;;;32.42;18.00;;;;;;;-6.60;83.08;99551.61;1717759;81;21246;-67
2021/01/21 02:03:22;;;;;;;33.92;18.48;;;;;;;-6.59;83.32;99555.44;1749768;81;21203;-67
2021/01/21 02:05:58;;;;;;;36.48;18.48;;;;;;;-6.57;83.23;99552.37;1715086;81;21144;-67
2021/01/21 02:08:27;;;;;;;31.95;17.55;;;;;;;-6.53;83.37;99558.28;1762253;81;21315;-66
2021/01/21 02:10:59;;;;;;;34.55;19.48;;;;;;;-6.51;83.24;99548.36;1762930;81;21376;-67
2021/01/21 02:13:37;;;;;;;;;;;;;;;-6.49;83.32;99544.43;1711063;81;21182;-67
2021/01/21 02:16:32;;;;;;;32.23;17.45;;;;;;;-6.45;83.35;99546.89;1752974;81;20157;-67
2021/01/21 02:19:58;;;;;;;31.85;18.87;;;;;;;-6.45;83.26;99531.45;1757819;81;21191;-68
2021/01/21 02:22:44;;;;;;;32.03;16.40;;;;;;;-6.38;83.23;99542.84;1755897;81;21739;-66
2021/01/21 02:25:16;;;;;;;33.23;16.93;;;;;;;-6.33;83.19;99543.55;1754995;81;21163;-66
2021/01/21 02:28:12;;;;;;;31.50;17.27;;;;;;;-6.31;83.15;99545.63;1758072;81;21486;-66
2021/01/21 02:31:06;;;;;;;33.18;17.05;;;;;;;-6.29;83.05;99542.57;1698411;81;22262;-66
2021/01/21 02:34:16;;;;;;;33.85;16.93;;;;;;;-6.30;83.22;99541.73;1746847;81;21168;-66
2021/01/21 02:36:45;;;;;;;30.70;16.97;;;;;;;-6.29;83.17;99552.86;1758724;81;21196;-66
2021/01/21 02:39:14;;;;;;;34.58;18.62;;;;;;;-6.29;83.30;99542.57;1761156;81;21184;-66
2021/01/21 02:41:43;;;;;;;31.68;17.10;;;;;;;-6.26;83.41;99530.91;1762247;81;21159;-66
2021/01/21 02:44:13;;;;;;;37.03;18.37;;;;;;;-6.27;83.53;99535.64;1751645;81;21159;-67
2021/01/21 02:46:42;;;;;;;30.45;17.07;;;;;;;-6.28;83.68;99532.69;1745960;81;21137;-66
2021/01/21 02:49:10;;;;;;;32.03;17.87;;;;;;;-6.26;83.88;99533.48;1740376;81;21179;-66
2021/01/21 02:52:03;;;;;;;30.55;16.52;;;;;;;-6.21;83.97;99532.88;1749881;81;21782;-65
2021/01/21 02:55:04;;;;;;;31.42;17.60;;;;;;;-6.17;83.87;99539.64;1739680;81;21151;-66
2021/01/21 02:57:42;;;;;;;31.93;17.10;;;;;;;-6.15;83.82;99545.58;1750298;81;21143;-66
2021/01/21 03:00:12;;;;;;;34.15;17.40;;;;;;;-6.14;83.83;99536.95;1688108;81;21631;-66
2021/01/21 03:02:45;;;;;;;27.42;15.23;;;;;;;-6.13;84.02;99536.08;1724611;81;21600;-66
2021/01/21 03:05:15;;;;;;;32.83;16.73;;;;;;;-6.11;84.09;99527.86;1680780;84;21151;-66
2021/01/21 03:07:43;;;;;;;29.15;16.50;;;;;;;-6.10;84.09;99532.10;1652975;84;21310;-65
2021/01/21 03:10:18;;;;;;;31.35;17.98;;;;;;;-6.07;84.33;99535.05;1720175;81;21191;-66
2021/01/21 03:12:57;;;;;;;31.17;17.10;;;;;;;-6.02;84.21;99519.44;1658534;84;21212;-65
2021/01/21 03:15:27;;;;;;;31.97;17.85;;;;;;;-6.05;84.23;99526.38;1679158;84;21552;-66
2021/01/21 03:17:57;;;;;;;29.92;16.30;;;;;;;-6.05;84.73;99548.72;1756024;81;21595;-66
2021/01/21 03:20:26;;;;;;;27.48;15.43;;;;;;;-6.05;84.93;99530.69;1754163;81;21152;-67
2021/01/21 03:22:54;;;;;;;29.48;15.08;;;;;;;-6.04;85.17;99537.54;1750790;81;21182;-66
2021/01/21 03:25:22;;;;;;;30.15;16.97;;;;;;;-6.03;85.05;99527.62;1736631;81;21136;-66
2021/01/21 03:27:52;;;;;;;29.90;16.40;;;;;;;-6.03;85.27;99528.91;1747570;81;21139;-66
2021/01/21 03:30:22;;;;;;;31.40;17.15;;;;;;;-6.01;85.46;99532.27;1696365;83;21173;-67
2021/01/21 03:32:50;;;;;;;27.95;16.20;;;;;;;-5.98;85.38;99542.48;1708111;84;21592;-66
2021/01/21 03:35:18;;;;;;;30.57;17.00;;;;;;;-5.97;85.48;99524.01;1714752;81;21306;-66
2021/01/21 03:37:47;;;;;;;32.30;16.87;;;;;;;-5.95;85.61;99540.25;1683049;84;21169;-66
2021/01/21 03:40:16;;;;;;;31.00;18.00;;;;;;;-5.93;85.49;99529.42;1656562;84;21169;-66
2021/01/21 03:42:46;;;;;;;30.05;16.75;;;;;;;-5.87;85.53;99539.10;1695616;84;21215;-66
2021/01/21 03:45:20;;;;;;;30.50;16.80;;;;;;;-5.84;85.40;99542.02;1734049;81;21164;-66
2021/01/21 03:47:49;;;;;;;33.00;17.82;;;;;;;-5.82;85.31;99537.66;1763041;81;21175;-66
2021/01/21 03:50:18;;;;;;;31.37;17.23;;;;;;;-5.83;85.51;99530.84;1764016;81;21164;-66
2021/01/21 03:52:47;;;;;;;29.07;16.40;;;;;;;-5.80;85.53;99526.85;1753071;81;21150;-66
2021/01/21 03:55:17;;;;;;;30.17;17.10;;;;;;;-5.82;85.71;99526.06;1744338;81;21600;-66
2021/01/21 03:57:46;;;;;;;32.70;17.02;;;;;;;-5.82;85.78;99524.77;1720447;83;21164;-65
2021/01/21 04:00:17;;;;;;;28.85;16.02;;;;;;;-5.81;86.12;99520.48;1679971;84;21208;-66
2021/01/21 04:02:47;;;;;;;31.33;16.60;;;;;;;-5.80;86.17;99513.97;1688609;84;21195;-66
2021/01/21 04:05:17;;;;;;;27.98;16.20;;;;;;;-5.77;86.28;99525.48;1756042;81;21164;-66
2021/01/21 04:07:46;;;;;;;31.15;16.48;;;;;;;-5.77;86.45;99522.90;1743684;81;21623;-66
2021/01/21 04:10:14;;;;;;;34.10;17.77;;;;;;;-5.74;86.72;99516.38;1733908;81;21178;-66
2021/01/21 04:13:16;;;;;;;28.25;16.32;;;;;;;-5.68;86.99;99520.03;1794756;78;23084;-67
2021/01/21 04:15:46;;;;;;;26.82;15.58;;;;;;;-5.71;87.02;99523.98;1784893;80;21168;-67
2021/01/21 04:18:14;;;;;;;31.93;17.25;;;;;;;-5.71;87.29;99518.83;1749248;80;21611;-67
2021/01/21 04:20:46;;;;;;;28.85;15.43;;;;;;;-5.68;87.37;99506.31;1782418;80;21144;-67
2021/01/21 04:23:14;;;;;;;31.12;16.15;;;;;;;-5.67;87.52;99521.73;1728612;83;21741;-67
2021/01/21 04:25:42;;;;;;;26.37;14.70;;;;;;;-5.66;87.52;99518.24;1727812;81;21627;-67
2021/01/21 04:28:10;;;;;;;29.55;16.60;;;;;;;-5.68;87.79;99516.62;1699830;82;21318;-67
2021/01/21 04:30:39;;;;;;;25.40;14.83;;;;;;;-5.68;88.33;99516.62;1690523;82;21192;-67
2021/01/21 04:33:07;;;;;;;29.92;17.10;;;;;;;-5.68;88.55;99517.91;1728055;82;21338;-67
2021/01/21 04:35:37;;;;;;;29.70;16.02;;;;;;;-5.66;88.92;99520.82;1752254;81;21282;-67
2021/01/21 04:38:05;;;;;;;32.23;16.93;;;;;;;-5.62;89.11;99511.71;1746266;81;21588;-66
2021/01/21 04:40:44;;;;;;;29.55;15.72;;;;;;;-5.60;89.04;99516.36;1752556;81;21693;-67
2021/01/21 04:43:17;;;;;;;32.33;16.45;;;;;;;-5.60;89.22;99509.92;1687882;81;21163;-67
2021/01/21 04:45:45;;;;;;;27.82;15.05;;;;;;;-5.56;89.23;99511.50;1719630;82;21174;-67
2021/01/21 04:48:13;;;;;;;30.72;16.45;;;;;;;-5.55;89.50;99515.78;1712567;81;21176;-67
2021/01/21 04:50:42;;;;;;;28.25;16.30;;;;;;;-5.53;89.41;99510.95;1740042;81;21319;-67
2021/01/21 04:53:17;;;;;;;31.87;17.45;;;;;;;-5.51;89.54;99508.34;1693914;84;21386;-67
2021/01/21 04:55:46;;;;;;;30.77;16.82;;;;;;;-5.48;89.44;99509.50;1731503;81;21149;-66
2021/01/21 04:58:32;;;;;;;31.93;17.55;;;;;;;-5.51;89.78;99507.05;1743622;82;21624;-67
2021/01/21 05:01:01;;;;;;;30.23;17.32;;;;;;;-5.48;89.71;99506.50;1742514;81;21595;-66
2021/01/21 05:03:31;;;;;;;31.05;17.82;;;;;;;-5.44;89.71;99511.11;1678652;82;21744;-67
2021/01/21 05:06:09;;;;;;;31.33;17.10;;;;;;;-5.41;89.63;99505.83;1745415;81;21191;-67
2021/01/21 05:08:37;;;;;;;31.50;17.57;;;;;;;-5.38;89.45;99510.89;1742494;81;21343;-67
2021/01/21 05:11:40;;;;;;;32.13;16.57;;;;;;;-5.30;89.36;99507.59;1806463;78;23349;-67
2021/01/21 05:14:10;;;;;;;31.68;17.05;;;;;;;-5.35;89.18;99512.09;1722492;80;21175;-68
2021/01/21 05:16:56;;;;;;;31.57;16.48;;;;;;;-5.35;89.29;99506.93;1772977;80;21172;-67
2021/01/21 05:19:45;;;;;;;33.42;18.05;;;;;;;-5.35;89.38;99515.95;1729033;83;21174;-67
2021/01/21 05:22:34;;;;;;;30.12;17.05;;;;;;;-5.35;89.46;99512.51;1746817;81;21183;-68
2021/01/21 05:25:08;;;;;;;34.70;18.05;;;;;;;-5.34;89.54;99525.35;1702656;81;21159;-68
2021/01/21 05:27:59;;;;;;;34.27;18.23;;;;;;;-5.31;89.63;99536.00;1663956;85;21260;-67
2021/01/21 05:30:53;;;;;;;35.70;17.25;;;;;;;-5.21;89.48;99523.66;1803866;79;22884;-67
2021/01/21 05:33:23;;;;;;;32.85;16.55;;;;;;;-5.25;89.36;99518.22;1781458;80;21154;-67
2021/01/21 05:36:07;;;;;;;33.60;18.20;;;;;;;-5.21;89.20;99523.20;1722067;80;21111;-69
2021/01/21 05:38:43;;;;;;;34.75;18.77;;;;;;;-5.19;89.16;99524.45;1749024;80;21615;-68
2021/01/21 05:41:28;;;;;;;34.98;16.65;;;;;;;-5.15;88.86;99520.86;1707411;83;21173;-68
2021/01/21 05:44:27;;;;;;;32.03;18.20;;;;;;;-5.09;88.79;99519.34;1794841;78;22929;-67
2021/01/21 05:47:05;;;;;;;34.60;17.73;;;;;;;-5.13;88.61;99514.74;1765999;80;21275;-68
2021/01/21 05:49:33;;;;;;;36.35;18.62;;;;;;;-5.12;88.58;99524.63;1720269;83;21369;-67
2021/01/21 05:52:03;;;;;;;32.88;17.80;;;;;;;-5.09;88.36;99540.84;1688756;84;21138;-68
2021/01/21 05:54:31;;;;;;;36.75;19.77;;;;;;;-5.08;88.18;99531.36;1708041;84;21191;-68
2021/01/21 05:57:01;;;;;;;37.53;18.98;;;;;;;-5.09;88.10;99528.37;1710157;82;21310;-67
2021/01/21 05:59:29;;;;;;;37.42;19.50;;;;;;;-5.12;88.28;99537.53;1707218;83;21329;-68
2021/01/21 06:02:00;;;;;;;33.58;17.48;;;;;;;-5.09;88.18;99540.84;1700644;84;21175;-68
2021/01/21 06:04:30;;;;;;;33.78;18.92;;;;;;;-5.09;88.31;99531.81;1676266;84;21168;-68
2021/01/21 06:06:59;;;;;;;36.05;19.75;;;;;;;-5.08;88.25;99532.66;1701344;83;21553;-68
2021/01/21 06:09:28;;;;;;;32.33;17.85;;;;;;;-5.09;88.32;99534.82;1667628;83;21203;-68
2021/01/21 06:12:01;;;;;;;35.65;18.40;;;;;;;-5.08;88.33;99531.36;1695449;84;21216;-67
2021/01/21 06:14:29;;;;;;;34.33;19.00;;;;;;;-5.08;88.47;99529.62;1695235;84;21642;-68
2021/01/21 06:16:57;;;;;;;35.63;18.65;;;;;;;-5.02;88.57;99514.83;1695508;84;21217;-69
2021/01/21 06:19:26;;;;;;;30.52;16.30;;;;;;;-4.97;88.41;99530.54;1668589;84;21210;-66
2021/01/21 06:21:57;;;;;;;34.48;19.27;;;;;;;-4.94;88.37;99535.60;1711513;83;21127;-69
2021/01/21 06:24:30;;;;;;;36.00;18.67;;;;;;;-4.88;88.22;99523.77;1690451;83;21683;-67
2021/01/21 06:27:01;;;;;;;33.67;19.02;;;;;;;-4.83;87.95;99527.91;1708276;83;21660;-67
2021/01/21 06:29:29;;;;;;;37.95;20.52;;;;;;;-4.80;87.90;99524.78;1686776;84;21177;-67
2021/01/21 06:32:01;;;;;;;34.23;17.95;;;;;;;-4.78;87.62;99517.82;1705850;84;21313;-66
2021/01/21 06:34:36;;;;;;;38.80;20.30;;;;;;;-4.73;87.55;99522.80;1707594;83;21256;-67
2021/01/21 06:37:15;;;;;;;35.88;19.17;;;;;;;-4.71;87.41;99519.74;1702467;84;21612;-65
2021/01/21 06:39:58;;;;;;;38.83;20.88;;;;;;;-4.67;87.42;99530.34;1709195;84;21215;-68
2021/01/21 06:42:35;;;;;;;36.42;20.00;;;;;;;-4.63;87.20;99532.36;1713240;82;21162;-68
2021/01/21 06:45:07;;;;;;;38.35;20.05;;;;;;;-4.57;87.14;99527.80;1696862;84;21359;-67
2021/01/21 06:47:35;;;;;;;36.88;19.48;;;;;;;-4.51;86.85;99530.17;1711404;83;21180;-67
2021/01/21 06:50:05;;;;;;;39.05;21.80;;;;;;;-4.43;86.51;99522.57;1696342;84;21204;-68
2021/01/21 06:52:38;;;;;;;36.40;20.08;;;;;;;-4.31;85.93;99526.83;1693319;84;21137;-67
2021/01/21 06:55:08;;;;;;;35.92;20.32;;;;;;;-4.31;85.93;99526.83;1720907;83;21180;-67
2021/01/21 06:57:42;;;;;;;39.95;20.68;;;;;;;-4.26;85.60;99525.38;1713602;82;21136;-68
2021/01/21 07:00:17;;;;;;;38.55;21.45;;;;;;;-4.20;85.25;99521.27;1714344;83;21171;-67
2021/01/21 07:02:50;;;;;;;35.78;20.12;;;;;;;-4.17;84.96;99517.28;1706527;83;21162;-69
2021/01/21 07:05:20;;;;;;;35.20;19.42;;;;;;;-4.13;84.94;99536.92;1708780;83;21608;-70
2021/01/21 07:08:01;;;;;;;39.00;21.70;;;;;;;-4.10;84.70;99535.52;1696614;84;21310;-69
2021/01/21 07:10:40;;;;;;;33.60;18.17;;;;;;;-4.05;84.69;99541.78;1715315;81;21333;-68
2021/01/21 07:13:23;;;;;;;42.30;22.13;;;;;;;-3.97;84.44;99525.98;1723803;83;21234;-66
2021/01/21 07:16:03;;;;;;;35.95;19.62;;;;;;;-3.94;84.25;99528.00;1696773;83;21581;-68
2021/01/21 07:18:36;;;;;;;35.70;20.15;;;;;;;-3.88;84.14;99534.67;1692192;84;21331;-68
2021/01/21 07:21:06;;;;;;;33.50;18.48;;;;;;;-3.80;83.86;99525.31;1695170;84;21351;-67
2021/01/21 07:23:49;;;;;;;38.58;20.72;;;;;;;-3.75;83.43;99523.39;1667082;84;21181;-67
2021/01/21 07:26:42;;;;;;;35.75;20.02;;;;;;;-3.69;83.13;99523.59;1695649;84;21640;-68
2021/01/21 07:29:16;;;;;;;33.73;18.73;;;;;;;-3.66;82.99;99519.15;1697756;84;21330;-68
2021/01/21 07:31:59;;;;;;;37.30;20.27;;;;;;;-3.63;82.88;99515.59;1645582;84;21198;-67
2021/01/21 07:34:32;;;;;;;35.45;19.70;;;;;;;-3.61;82.72;99526.27;1715977;83;21390;-68
2021/01/21 07:37:25;;;;;;;35.05;20.60;;;;;;;-3.60;82.64;99518.06;1663656;84;21651;-69
2021/01/21 07:40:07;;;;;;;37.38;20.52;;;;;;;-3.59;82.67;99520.59;1719602;82;21184;-68
2021/01/21 07:42:40;;;;;;;37.10;20.72;;;;;;;-3.55;82.77;99510.96;1687752;82;21580;-67
2021/01/21 07:45:23;;;;;;;36.80;20.52;;;;;;;-3.47;82.67;99511.94;1697360;84;21192;-67
2021/01/21 07:47:51;;;;;;;;;;;;;;;-3.41;82.34;99519.43;1705632;83;21209;-68
2021/01/21 07:50:34;;;;;;;35.38;19.45;;;;;;;-3.35;82.01;99507.09;1701007;83;20253;-69
2021/01/21 07:53:04;;;;;;;38.73;21.02;;;;;;;-3.32;81.74;99508.23;1715473;83;21171;-68
2021/01/21 07:55:36;;;;;;;35.92;20.60;;;;;;;-3.24;81.42;99514.84;1723584;83;21211;-68
2021/01/21 07:58:35;;;;;;;36.63;20.35;;;;;;;-3.22;81.25;99504.80;1713186;83;21195;-69
2021/01/21 08:01:09;;;;;;;36.48;20.37;;;;;;;-3.14;81.04;99499.33;1727791;83;21387;-69
2021/01/21 08:03:42;;;;;;;36.40;21.00;;;;;;;-3.10;80.83;99495.70;1718669;83;21174;-67
2021/01/21 08:06:19;;;;;;;34.43;20.12;;;;;;;-2.99;80.62;99498.66;1707218;84;21703;-68
2021/01/21 08:08:50;;;;;;;35.38;19.60;;;;;;;-2.84;79.87;99491.97;1712306;82;21186;-69
2021/01/21 08:11:21;;;;;;;39.38;21.37;;;;;;;-2.66;79.38;99492.88;1705934;84;21330;-68
2021/01/21 08:13:57;;;;;;;38.85;20.43;;;;;;;-2.50;78.52;99493.04;1707556;84;21604;-69
2021/01/21 08:16:25;;;;;;;36.17;21.35;;;;;;;-2.35;77.49;99501.39;1708280;84;21183;-69
2021/01/21 08:19:00;;;;;;;38.65;21.35;;;;;;;-2.18;76.85;99504.49;1666655;84;21589;-68
2021/01/21 08:21:29;;;;;;;36.63;19.90;;;;;;;-1.95;76.02;99501.27;1688152;84;21211;-69
2021/01/21 08:24:02;;;;;;;36.75;21.45;;;;;;;-1.81;74.54;99502.75;1695528;84;21188;-68
2021/01/21 08:26:31;;;;;;;38.30;21.65;;;;;;;-1.63;73.78;99505.35;1729228;83;21144;-68
2021/01/21 08:28:59;;;;;;;37.58;21.77;;;;;;;-1.46;73.37;99503.22;1729510;83;21204;-68
2021/01/21 08:31:41;;;;;;;36.05;20.50;;;;;;;-1.19;72.33;99507.50;1708073;83;21187;-68
2021/01/21 08:34:19;;;;;;;35.50;21.87;;;;;;;-0.94;70.60;99502.34;1682010;83;21350;-68
2021/01/21 08:36:47;;;;;;;37.20;21.95;;;;;;;-0.73;69.82;99510.32;1718542;83;21199;-68
2021/01/21 08:39:16;;;;;;;37.40;21.55;;;;;;;-0.44;68.73;99488.44;1709290;83;21222;-68
2021/01/21 08:41:44;;;;;;;31.20;18.77;;;;;;;-0.26;67.82;99487.44;1709964;83;21175;-69
2021/01/21 08:44:17;;;;;;;38.02;22.52;;;;;;;0.02;66.85;99489.81;1721457;83;21163;-68
2021/01/21 08:46:59;;;;;;;36.98;22.77;;;;;;;0.31;65.82;99492.05;1702082;83;21314;-69
2021/01/21 08:49:28;;;;;;;35.63;22.48;;;;;;;0.60;64.86;99488.69;1699022;83;21168;-68
2021/01/21 08:52:09;;;;;;;35.75;20.97;;;;;;;0.91;63.75;99487.73;1691469;83;21163;-67
2021/01/21 08:54:53;;;;;;;35.68;23.12;;;;;;;1.16;62.70;99489.72;1723939;83;21589;-69
2021/01/21 08:57:23;;;;;;;33.18;22.58;;;;;;;1.44;61.36;99491.91;1723268;83;21342;-68
2021/01/21 08:59:51;;;;;;;31.77;20.52;;;;;;;2.09;59.78;99498.66;1730602;83;21342;-69
2021/01/21 09:02:41;;;;;;;33.75;21.87;;;;;;;2.78;57.74;99494.59;1729173;83;21325;-68
2021/01/21 09:05:12;;;;;;;33.38;22.02;;;;;;;3.37;55.99;99492.77;1722502;83;21188;-67
2021/01/21 09:07:41;;;;;;;30.88;20.35;;;;;;;3.91;53.25;99494.67;1719413;83;21609;-68
2021/01/21 09:10:30;;;;;;;36.88;22.77;;;;;;;4.19;52.70;99491.75;1686930;83;21164;-68
2021/01/21 09:13:01;;;;;;;35.20;23.05;;;;;;;4.38;51.86;99492.53;1652907;85;21235;-68
2021/01/21 09:15:29;;;;;;;33.20;23.20;;;;;;;4.41;51.40;99477.89;1667697;84;21196;-69
2021/01/21 09:18:05;;;;;;;32.78;22.17;;;;;;;4.41;51.24;99480.98;1706957;83;21126;-68
2021/01/21 09:20:33;;;;;;;32.85;22.58;;;;;;;4.39;50.58;99474.55;1697964;82;21204;-68
2021/01/21 09:23:15;;;;;;;31.45;21.27;;;;;;;4.42;50.54;99470.41;1699894;83;21191;-67
2021/01/21 09:25:42;;;;;;;33.23;21.60;;;;;;;4.41;50.60;99469.20;1700596;82;21134;-67
2021/01/21 09:28:11;;;;;;;30.55;21.55;;;;;;;4.30;50.91;99472.61;1700343;83;21158;-68
2021/01/21 09:30:41;;;;;;;31.60;21.07;;;;;;;4.25;50.70;99473.45;1669273;83;21162;-68
2021/01/21 09:33:09;;;;;;;35.78;22.55;;;;;;;4.35;50.98;99470.98;1695203;83;21165;-67
2021/01/21 09:35:40;;;;;;;33.35;22.60;;;;;;;4.79;50.11;99466.83;1681648;84;21141;-68
2021/01/21 09:38:08;;;;;;;33.02;21.75;;;;;;;5.38;48.84;99465.78;1683838;83;21150;-67
2021/01/21 09:40:35;;;;;;;29.07;19.92;;;;;;;6.05;47.52;99463.53;1695882;82;21162;-70
2021/01/21 09:43:04;;;;;;;32.75;22.48;;;;;;;6.85;45.60;99463.52;1693049;83;21635;-68
2021/01/21 09:45:32;;;;;;;29.87;19.73;;;;;;;7.25;43.58;99447.44;1696852;82;21184;-66
2021/01/21 09:48:02;;;;;;;30.37;21.12;;;;;;;7.60;42.74;99458.85;1703478;82;21718;-67
2021/01/21 09:50:31;;;;;;;31.90;21.62;;;;;;;7.92;41.61;99454.69;1703365;83;21166;-68
2021/01/21 09:52:59;;;;;;;29.98;21.85;;;;;;;8.04;40.97;99457.19;1696824;83;21136;-68
2021/01/21 09:55:28;;;;;;;31.60;22.67;;;;;;;8.21;40.86;99453.04;1707408;82;21551;-67
2021/01/21 09:57:57;;;;;;;27.98;20.43;;;;;;;8.70;40.21;99453.89;1701403;82;21602;-66
2021/01/21 10:00:25;;;;;;;30.92;21.62;;;;;;;9.43;38.86;99449.28;1698652;83;21330;-68
2021/01/21 10:02:52;;;;;;;28.17;20.02;;;;;;;10.07;37.70;99450.95;1683538;83;21182;-68
2021/01/21 10:05:22;;;;;;;30.82;22.98;;;;;;;10.53;36.41;99454.02;1694098;83;21183;-67
2021/01/21 10:07:49;;;;;;;31.00;21.30;;;;;;;10.80;35.62;99444.64;1702958;82;21153;-67
2021/01/21 10:10:18;;;;;;;29.63;22.02;;;;;;;11.14;34.97;99450.46;1680207;83;21623;-67
2021/01/21 10:12:46;;;;;;;26.95;20.50;;;;;;;11.37;34.25;99453.41;1706725;83;21166;-67
2021/01/21 10:15:15;;;;;;;28.07;21.12;;;;;;;11.65;33.51;99449.19;1694557;83;21612;-67
2021/01/21 10:17:44;;;;;;;30.75;22.17;;;;;;;11.72;33.00;99436.96;1681239;83;21135;-67
2021/01/21 10:20:14;;;;;;;29.45;22.90;;;;;;;11.74;32.97;99438.13;1701695;82;21613;-67
2021/01/21 10:22:42;;;;;;;28.87;21.95;;;;;;;11.78;33.44;99428.39;1671095;83;21184;-67
2021/01/21 10:25:11;;;;;;;28.20;21.17;;;;;;;12.12;32.86;99435.44;1701166;83;21115;-66
2021/01/21 10:27:38;;;;;;;31.50;22.73;;;;;;;12.29;31.91;99440.73;1703630;82;21336;-67
2021/01/21 10:30:08;;;;;;;29.65;23.85;;;;;;;12.43;32.21;99425.49;1696514;83;21310;-68
2021/01/21 10:32:36;;;;;;;30.62;23.52;;;;;;;12.57;31.65;99439.42;1698088;82;21204;-67
2021/01/21 10:35:06;;;;;;;28.85;22.67;;;;;;;12.74;31.09;99430.95;1695305;83;21663;-68
2021/01/21 10:37:33;;;;;;;29.80;23.70;;;;;;;12.90;31.09;99415.48;1671853;83;21182;-67
2021/01/21 10:40:04;;;;;;;31.42;23.30;;;;;;;12.93;31.57;99413.82;1701565;82;21200;-67
2021/01/21 10:42:32;;;;;;;33.20;23.80;;;;;;;13.02;31.15;99415.97;1686910;83;21165;-69
2021/01/21 10:45:02;;;;;;;32.75;24.52;;;;;;;13.08;31.09;99409.14;1668050;83;21140;-67
2021/01/21 10:47:31;;;;;;;27.93;21.62;;;;;;;13.42;30.49;99405.39;1672889;83;21155;-68
2021/01/21 10:50:01;;;;;;;27.22;21.40;;;;;;;13.64;30.21;99408.59;1695277;83;21621;-66
2021/01/21 10:52:29;;;;;;;29.18;23.35;;;;;;;13.22;30.20;99399.12;1675681;83;21227;-69
2021/01/21 10:54:59;;;;;;;28.12;22.17;;;;;;;12.92;30.62;99399.39;1696769;83;21184;-68
2021/01/21 10:57:29;;;;;;;30.83;23.57;;;;;;;12.82;31.18;99400.91;1701103;83;21703;-67
2021/01/21 10:59:57;;;;;;;30.00;22.25;;;;;;;12.91;30.97;99396.42;1696342;83;21187;-67
2021/01/21 11:02:25;;;;;;;31.00;23.30;;;;;;;13.00;30.58;99394.89;1698098;82;21146;-67
2021/01/21 11:04:52;;;;;;;29.67;23.70;;;;;;;13.08;30.39;99388.73;1695603;83;21736;-67
2021/01/21 11:07:20;;;;;;;28.10;23.83;;;;;;;13.01;30.72;99387.25;1701260;83;21352;-67
2021/01/21 11:09:48;;;;;;;28.67;22.95;;;;;;;13.05;30.70;99387.73;1701775;82;21196;-67
2021/01/21 11:12:16;;;;;;;31.20;23.92;;;;;;;13.02;30.66;99385.44;1696462;82;21334;-67
2021/01/21 11:14:46;;;;;;;30.43;21.93;;;;;;;12.90;30.98;99379.66;1671320;83;21179;-68
2021/01/21 11:17:13;;;;;;;32.93;23.75;;;;;;;13.01;30.85;99393.88;1678379;83;21218;-65
2021/01/21 11:19:41;;;;;;;29.87;23.15;;;;;;;13.01;30.49;99395.20;1677193;83;21180;-66
2021/01/21 11:22:10;;;;;;;31.97;23.05;;;;;;;12.66;30.99;99389.81;1697106;82;21642;-67
2021/01/21 11:24:39;;;;;;;28.47;22.62;;;;;;;12.38;31.46;99375.63;1675174;83;21155;-67
2021/01/21 11:27:07;;;;;;;28.90;23.38;;;;;;;12.19;31.79;99371.97;1713309;83;21138;-67
2021/01/21 11:29:36;;;;;;;27.87;22.07;;;;;;;12.11;31.99;99386.05;1702555;83;21615;-67
2021/01/21 11:32:04;;;;;;;31.40;24.40;;;;;;;11.72;32.34;99377.86;1702453;83;21154;-66
2021/01/21 11:34:32;;;;;;;31.20;22.32;;;;;;;11.00;33.44;99371.19;1678351;82;21144;-66
2021/01/21 11:37:00;;;;;;;30.82;23.83;;;;;;;10.22;34.71;99375.13;1693740;83;21156;-67
2021/01/21 11:39:29;;;;;;;28.70;22.42;;;;;;;9.43;36.14;99372.24;1697201;83;21276;-67
2021/01/21 11:41:57;;;;;;;27.65;20.65;;;;;;;8.88;37.36;99383.63;1681201;83;21164;-67
2021/01/21 11:44:25;;;;;;;27.05;20.43;;;;;;;8.41;38.43;99370.88;1695631;83;21333;-66